Maersk Danang — A8PS5 — position and weather

sailwx.info

Track history (hours):
 
Tides and Currents Weather Stations Pressure Air Temp Water Temp Dewpoint Dewpoint Depression Visibility Wind Speed Wind Dir Waves Ship Positions

Maersk Danang

Last reported at 2017-Nov-20 00:30 UTC. Time now 2017-Nov-20 12:08 UTC.
Position N 01°17' E 103°55'.

Length 293 m; draft 8.5 m.

Type: Ship. MMSI: 636091595.

Date/timePositionNaut miles runAvg speedWind from/ knotsBaromVisibWave heightAir tempDewpointWater temp
2017-Nov-20 00:30N 01°17' E 103°55'0 0.0
2017-Nov-20 00:00N 01°17' E 103°55'0 0.0
2017-Nov-19 23:25N 01°17' E 103°55'0 0.0
2017-Nov-19 23:00N 01°17' E 103°55'0 0.0
2017-Nov-19 22:30N 01°17' E 103°55'0 0.0
2017-Nov-19 22:00N 01°17' E 103°55'0 0.0
2017-Nov-19 21:27N 01°17' E 103°55'0 0.0
2017-Nov-19 20:58N 01°17' E 103°55'0 0.0
2017-Nov-19 20:30N 01°17' E 103°55'0 0.0
2017-Nov-19 20:00N 01°17' E 103°55'0 0.0
2017-Nov-19 19:25N 01°17' E 103°55'0 0.0
2017-Nov-19 19:01N 01°17' E 103°55'0 0.0
2017-Nov-19 18:31N 01°17' E 103°55'0 0.0
2017-Nov-19 17:58N 01°17' E 103°55'0 0.0
2017-Nov-19 17:29N 01°17' E 103°55'0 0.0
2017-Nov-19 17:00N 01°17' E 103°55'0 0.0
2017-Nov-19 16:27N 01°17' E 103°55'0 0.0
2017-Nov-19 15:59N 01°17' E 103°55'0 0.0
2017-Nov-19 15:26N 01°17' E 103°55'0 0.0
2017-Nov-19 15:01N 01°17' E 103°55'0 0.0
2017-Nov-19 14:31N 01°17' E 103°55'0 0.0
2017-Nov-19 14:00N 01°17' E 103°55'0 0.0
2017-Nov-19 13:29N 01°17' E 103°55'0 0.0
2017-Nov-19 12:35N 01°17' E 103°55'0 0.0
2017-Nov-19 12:30N 01°17' E 103°55'0 0.0
2017-Nov-19 11:56N 01°17' E 103°55'0 0.0
2017-Nov-19 11:30N 01°17' E 103°55'0 0.0
2017-Nov-19 11:00N 01°17' E 103°55'0 0.1
2017-Nov-19 10:31N 01°17' E 103°55'3 5.5
2017-Nov-19 10:00N 01°15' E 103°57'2 4.1
2017-Nov-19 09:30N 01°14' E 103°56'4 8.3
2017-Nov-19 09:00N 01°12' E 103°52'510.9
2017-Nov-19 08:30N 01°09' E 103°48'612.1
2017-Nov-19 07:59N 01°05' E 103°43'611.5
2017-Nov-19 07:30N 01°03' E 103°38'711.5
2017-Nov-19 06:54N 01°08' E 103°33'512.1
2017-Nov-19 06:30N 01°13' E 103°32'510.1
2017-Nov-19 05:59N 01°18' E 103°33'3 5.2
2017-Nov-19 05:30N 01°21' E 103°33'0 0.0
2017-Nov-19 04:53N 01°21' E 103°33'0 0.0
2017-Nov-19 04:11N 01°21' E 103°33'0 0.0
2017-Nov-19 03:59N 01°21' E 103°33'0 0.0
2017-Nov-19 02:59N 01°21' E 103°33'0 0.0
2017-Nov-19 02:29N 01°21' E 103°33'0 0.0
2017-Nov-19 01:55N 01°21' E 103°33'0 0.0
2017-Nov-19 01:28N 01°21' E 103°33'0 0.0
2017-Nov-19 00:55N 01°21' E 103°33'0 0.0
2017-Nov-19 00:28N 01°21' E 103°33'0 0.0
2017-Nov-18 23:55N 01°21' E 103°33'0 0.0
2017-Nov-18 23:28N 01°21' E 103°33'0 0.0
2017-Nov-18 22:58N 01°21' E 103°33'0 0.0
2017-Nov-18 22:28N 01°21' E 103°33'0 0.0
2017-Nov-18 22:00N 01°21' E 103°33'0 0.0
2017-Nov-18 21:30N 01°21' E 103°33'0 0.0
2017-Nov-18 20:42N 01°21' E 103°33'0 0.1
2017-Nov-18 20:30N 01°21' E 103°33'0 0.0
2017-Nov-18 19:42N 01°21' E 103°33'0 0.0
2017-Nov-18 19:30N 01°21' E 103°33'0 0.0
2017-Nov-18 19:00N 01°21' E 103°33'0 0.0
2017-Nov-18 18:30N 01°21' E 103°33'0 0.0
2017-Nov-18 18:00N 01°21' E 103°33'0 0.0
2017-Nov-18 17:30N 01°21' E 103°33'0 0.0
2017-Nov-18 16:57N 01°21' E 103°33'0 0.0
2017-Nov-18 16:24N 01°21' E 103°33'0 0.0
2017-Nov-18 15:54N 01°21' E 103°33'0 0.0
2017-Nov-18 15:27N 01°21' E 103°33'0 0.0
2017-Nov-18 14:57N 01°21' E 103°33'0 0.0
2017-Nov-18 14:27N 01°21' E 103°33'0 0.0
2017-Nov-18 13:54N 01°21' E 103°33'0 0.0
2017-Nov-18 13:30N 01°21' E 103°33'0 0.0
2017-Nov-18 13:00N 01°21' E 103°33'0 0.0
2017-Nov-18 12:26N 01°21' E 103°33'1 3.5
2017-Nov-18 12:00N 01°19' E 103°33'611.0
2017-Nov-18 11:30N 01°14' E 103°32'3 6.3
2017-Nov-18 11:01N 01°12' E 103°35'611.1
2017-Nov-18 10:30N 01°10' E 103°40'611.7
2017-Nov-18 10:00N 01°09' E 103°46'612.4
2017-Nov-18 09:30N 01°12' E 103°52'713.6
2017-Nov-18 09:01N 01°15' E 103°58'  
2017-Nov-12 19:52N 31°54' E 122°55'714.1
2017-Nov-12 19:24N 32°00' E 122°57'36416.0
2017-Nov-11 20:34N 38°02' E 122°04'  
Track history (hours):
 
Tides and Currents Weather Stations Pressure Air Temp Water Temp Dewpoint Dewpoint Depression Visibility Wind Speed Wind Dir Waves Ship Positions

Maersk Danang

Last reported at 2017-Nov-20 00:30 UTC. Time now 2017-Nov-20 12:08 UTC.
Position N 01°17' E 103°55'.

Length 293 m; draft 8.5 m.

Type: Ship. MMSI: 636091595.

Date/timePositionNaut miles runAvg speedWind from/ knotsBaromVisibWave heightAir tempDewpointWater temp
2017-Nov-20 00:30N 01°17' E 103°55'0 0.0
2017-Nov-20 00:00N 01°17' E 103°55'0 0.0
2017-Nov-19 23:25N 01°17' E 103°55'0 0.0
2017-Nov-19 23:00N 01°17' E 103°55'0 0.0
2017-Nov-19 22:30N 01°17' E 103°55'0 0.0
2017-Nov-19 22:00N 01°17' E 103°55'0 0.0
2017-Nov-19 21:27N 01°17' E 103°55'0 0.0
2017-Nov-19 20:58N 01°17' E 103°55'0 0.0
2017-Nov-19 20:30N 01°17' E 103°55'0 0.0
2017-Nov-19 20:00N 01°17' E 103°55'0 0.0
2017-Nov-19 19:25N 01°17' E 103°55'0 0.0
2017-Nov-19 19:01N 01°17' E 103°55'0 0.0
2017-Nov-19 18:31N 01°17' E 103°55'0 0.0
2017-Nov-19 17:58N 01°17' E 103°55'0 0.0
2017-Nov-19 17:29N 01°17' E 103°55'0 0.0
2017-Nov-19 17:00N 01°17' E 103°55'0 0.0
2017-Nov-19 16:27N 01°17' E 103°55'0 0.0
2017-Nov-19 15:59N 01°17' E 103°55'0 0.0
2017-Nov-19 15:26N 01°17' E 103°55'0 0.0
2017-Nov-19 15:01N 01°17' E 103°55'0 0.0
2017-Nov-19 14:31N 01°17' E 103°55'0 0.0
2017-Nov-19 14:00N 01°17' E 103°55'0 0.0
2017-Nov-19 13:29N 01°17' E 103°55'0 0.0
2017-Nov-19 12:35N 01°17' E 103°55'0 0.0
2017-Nov-19 12:30N 01°17' E 103°55'0 0.0
2017-Nov-19 11:56N 01°17' E 103°55'0 0.0
2017-Nov-19 11:30N 01°17' E 103°55'0 0.0
2017-Nov-19 11:00N 01°17' E 103°55'0 0.1
2017-Nov-19 10:31N 01°17' E 103°55'3 5.5
2017-Nov-19 10:00N 01°15' E 103°57'2 4.1
2017-Nov-19 09:30N 01°14' E 103°56'4 8.3
2017-Nov-19 09:00N 01°12' E 103°52'510.9
2017-Nov-19 08:30N 01°09' E 103°48'612.1
2017-Nov-19 07:59N 01°05' E 103°43'611.5
2017-Nov-19 07:30N 01°03' E 103°38'711.5
2017-Nov-19 06:54N 01°08' E 103°33'512.1
2017-Nov-19 06:30N 01°13' E 103°32'510.1
2017-Nov-19 05:59N 01°18' E 103°33'3 5.2
2017-Nov-19 05:30N 01°21' E 103°33'0 0.0
2017-Nov-19 04:53N 01°21' E 103°33'0 0.0
2017-Nov-19 04:11N 01°21' E 103°33'0 0.0
2017-Nov-19 03:59N 01°21' E 103°33'0 0.0
2017-Nov-19 02:59N 01°21' E 103°33'0 0.0
2017-Nov-19 02:29N 01°21' E 103°33'0 0.0
2017-Nov-19 01:55N 01°21' E 103°33'0 0.0
2017-Nov-19 01:28N 01°21' E 103°33'0 0.0
2017-Nov-19 00:55N 01°21' E 103°33'0 0.0
2017-Nov-19 00:28N 01°21' E 103°33'0 0.0
2017-Nov-18 23:55N 01°21' E 103°33'0 0.0
2017-Nov-18 23:28N 01°21' E 103°33'0 0.0
2017-Nov-18 22:58N 01°21' E 103°33'0 0.0
2017-Nov-18 22:28N 01°21' E 103°33'0 0.0
2017-Nov-18 22:00N 01°21' E 103°33'0 0.0
2017-Nov-18 21:30N 01°21' E 103°33'0 0.0
2017-Nov-18 20:42N 01°21' E 103°33'0 0.1
2017-Nov-18 20:30N 01°21' E 103°33'0 0.0
2017-Nov-18 19:42N 01°21' E 103°33'0 0.0
2017-Nov-18 19:30N 01°21' E 103°33'0 0.0
2017-Nov-18 19:00N 01°21' E 103°33'0 0.0
2017-Nov-18 18:30N 01°21' E 103°33'0 0.0
2017-Nov-18 18:00N 01°21' E 103°33'0 0.0
2017-Nov-18 17:30N 01°21' E 103°33'0 0.0
2017-Nov-18 16:57N 01°21' E 103°33'0 0.0
2017-Nov-18 16:24N 01°21' E 103°33'0 0.0
2017-Nov-18 15:54N 01°21' E 103°33'0 0.0
2017-Nov-18 15:27N 01°21' E 103°33'0 0.0
2017-Nov-18 14:57N 01°21' E 103°33'0 0.0
2017-Nov-18 14:27N 01°21' E 103°33'0 0.0
2017-Nov-18 13:54N 01°21' E 103°33'0 0.0
2017-Nov-18 13:30N 01°21' E 103°33'0 0.0
2017-Nov-18 13:00N 01°21' E 103°33'0 0.0
2017-Nov-18 12:26N 01°21' E 103°33'1 3.5
2017-Nov-18 12:00N 01°19' E 103°33'611.0
2017-Nov-18 11:30N 01°14' E 103°32'3 6.3
2017-Nov-18 11:01N 01°12' E 103°35'611.1
2017-Nov-18 10:30N 01°10' E 103°40'611.7
2017-Nov-18 10:00N 01°09' E 103°46'612.4
2017-Nov-18 09:30N 01°12' E 103°52'713.6
2017-Nov-18 09:01N 01°15' E 103°58'  
2017-Nov-12 19:52N 31°54' E 122°55'714.1
2017-Nov-12 19:24N 32°00' E 122°57'36416.0
2017-Nov-11 20:34N 38°02' E 122°04'  

Dump ship's entire track history